Time;durP1;ratioP1;P1;durP2;ratioP2;P2;SDS_P1;SDS_P2;PMS_P1;PMS_P2;Temp;Humidity;BMP_temperature;BMP_pressure;BME280_temperature;BME280_humidity;BME280_pressure;Samples;Min_cycle;Max_cycle;Signal;HPM_P1;HPM_P2
2024/04/12 00:01:37;;;;;;;250.37;81.40;;;;;;;;;;5355495;26;20522;-42
2024/04/12 00:04:08;;;;;;;244.93;76.27;;;;;;;;;;5352964;26;20573;-41
2024/04/12 00:06:33;;;;;;;243.40;73.30;;;;;;;;;;5364929;26;20456;-42
2024/04/12 00:09:00;;;;;;;244.07;75.03;;;;;;;;;;5367061;26;20452;-41
2024/04/12 00:11:26;;;;;;;246.07;78.70;;;;;;;;;;5369001;26;20464;-42
2024/04/12 00:13:55;;;;;;;239.57;68.97;;;;;;;;;;5370273;26;20984;-42
2024/04/12 00:16:24;;;;;;;242.87;74.43;;;;;;;;;;5372093;26;20502;-42
2024/04/12 00:19:12;;;;;;;246.50;78.60;;;;;;;;;;5359370;26;20513;-42
2024/04/12 00:21:41;;;;;;;245.50;77.70;;;;;;;;;;5370688;26;20516;-42
2024/04/12 00:24:10;;;;;;;245.23;77.07;;;;;;;;;;5348616;26;20464;-42
2024/04/12 00:26:36;;;;;;;241.05;73.05;;;;;;;;;;5348900;26;20227;-42
2024/04/12 00:29:07;;;;;;;242.50;71.77;;;;;;;;;;5351345;26;20281;-42
2024/04/12 00:31:42;;;;;;;244.67;77.10;;;;;;;;;;5353115;26;20853;-42
2024/04/12 00:34:08;;;;;;;250.33;82.47;;;;;;;;;;5355568;26;20509;-42
2024/04/12 00:36:34;;;;;;;245.52;77.32;;;;;;;;;;5347340;26;20465;-42
2024/04/12 00:39:01;;;;;;;249.37;80.60;;;;;;;;;;5380038;26;20928;-42
2024/04/12 00:41:29;;;;;;;247.47;84.33;;;;;;;;;;5364088;26;20992;-42
2024/04/12 00:43:55;;;;;;;243.02;75.90;;;;;;;;;;5360009;26;20517;-42
2024/04/12 00:46:23;;;;;;;244.33;75.83;;;;;;;;;;5351861;26;20573;-41
2024/04/12 00:48:52;;;;;;;247.47;78.90;;;;;;;;;;5372473;26;20461;-41
2024/04/12 00:51:19;;;;;;;249.88;81.70;;;;;;;;;;5345419;26;20558;-41
2024/04/12 00:53:47;;;;;;;237.85;69.90;;;;;;;;;;5371613;26;20225;-41
2024/04/12 00:56:14;;;;;;;239.57;70.27;;;;;;;;;;5368469;26;20279;-41
2024/04/12 00:58:42;;;;;;;243.07;72.60;;;;;;;;;;5367631;26;20448;-41
2024/04/12 01:01:15;;;;;;;247.10;76.07;;;;;;;;;;5375330;26;20864;-41
2024/04/12 01:03:49;;;;;;;243.83;72.43;;;;;;;;;;5378877;26;20511;-41
2024/04/12 01:06:18;;;;;;;243.63;72.67;;;;;;;;;;5367337;26;21174;-41
2024/04/12 01:08:44;;;;;;;243.23;74.23;;;;;;;;;;5379475;26;20857;-42
2024/04/12 01:11:13;;;;;;;242.93;72.40;;;;;;;;;;5377797;26;20566;-41
2024/04/12 01:13:40;;;;;;;245.77;75.10;;;;;;;;;;5367952;26;20480;-41
2024/04/12 01:16:06;;;;;;;245.13;75.00;;;;;;;;;;5376620;26;20445;-41
2024/04/12 01:18:33;;;;;;;244.77;76.70;;;;;;;;;;5375429;26;20458;-41
2024/04/12 01:21:10;;;;;;;248.43;77.20;;;;;;;;;;5376357;26;20496;-41
2024/04/12 01:23:36;;;;;;;242.07;71.97;;;;;;;;;;5360993;26;20519;-41
2024/04/12 01:26:02;;;;;;;245.20;75.47;;;;;;;;;;5347692;26;21081;-41
2024/04/12 01:28:28;;;;;;;244.93;77.27;;;;;;;;;;5367966;26;20455;-41
2024/04/12 01:30:59;;;;;;;242.90;73.90;;;;;;;;;;5371050;26;20827;-41
2024/04/12 01:33:25;;;;;;;242.48;74.53;;;;;;;;;;5370057;26;20795;-41
2024/04/12 01:35:53;;;;;;;244.40;75.57;;;;;;;;;;5369237;26;20238;-41
2024/04/12 01:38:20;;;;;;;246.50;77.85;;;;;;;;;;5361716;26;20455;-41
2024/04/12 01:40:46;;;;;;;241.83;71.57;;;;;;;;;;5365337;26;20272;-41
2024/04/12 01:43:18;;;;;;;243.47;74.37;;;;;;;;;;5377370;26;21010;-41
2024/04/12 01:45:44;;;;;;;244.43;75.80;;;;;;;;;;5365736;26;20585;-41
2024/04/12 01:48:11;;;;;;;245.10;73.40;;;;;;;;;;5371424;26;20452;-41
2024/04/12 01:50:40;;;;;;;247.17;76.40;;;;;;;;;;5356188;26;20466;-41
2024/04/12 01:53:09;;;;;;;246.53;80.70;;;;;;;;;;5376273;26;21133;-41
2024/04/12 01:55:39;;;;;;;246.37;78.57;;;;;;;;;;5353504;26;20457;-41
2024/04/12 01:58:05;;;;;;;247.60;80.53;;;;;;;;;;5376341;26;20462;-41
2024/04/12 02:00:33;;;;;;;249.17;85.07;;;;;;;;;;5375211;26;20447;-41
2024/04/12 02:02:59;;;;;;;243.03;73.63;;;;;;;;;;5374411;26;20999;-41
2024/04/12 02:05:44;;;;;;;247.40;79.25;;;;;;;;;;5372167;26;20507;-41
2024/04/12 02:08:19;;;;;;;248.07;81.57;;;;;;;;;;5372303;26;20224;-41
2024/04/12 02:10:48;;;;;;;243.70;75.10;;;;;;;;;;5373508;26;20453;-41
2024/04/12 02:13:17;;;;;;;242.47;72.63;;;;;;;;;;5377623;26;20815;-41
2024/04/12 02:15:43;;;;;;;245.00;75.70;;;;;;;;;;5370157;26;20444;-41
2024/04/12 02:18:13;;;;;;;245.70;75.37;;;;;;;;;;5368940;26;20459;-41
2024/04/12 02:20:40;;;;;;;244.03;74.67;;;;;;;;;;5368301;26;21005;-41
2024/04/12 02:23:07;;;;;;;244.77;79.30;;;;;;;;;;5350453;26;20445;-41
2024/04/12 02:25:36;;;;;;;241.32;74.28;;;;;;;;;;5371449;26;20509;-41
2024/04/12 02:28:07;;;;;;;242.80;75.57;;;;;;;;;;5373913;26;20225;-41
2024/04/12 02:30:41;;;;;;;245.13;78.17;;;;;;;;;;5367496;26;20226;-41
2024/04/12 02:33:08;;;;;;;242.73;74.57;;;;;;;;;;5378474;26;20459;-41
2024/04/12 02:35:34;;;;;;;247.80;82.60;;;;;;;;;;5363953;26;20532;-42
2024/04/12 02:38:00;;;;;;;245.87;80.03;;;;;;;;;;5375648;26;20223;-41
2024/04/12 02:40:26;;;;;;;246.67;82.00;;;;;;;;;;5368302;26;20461;-41
2024/04/12 02:42:52;;;;;;;248.20;82.70;;;;;;;;;;5367789;26;20467;-41
2024/04/12 02:45:18;;;;;;;251.33;84.67;;;;;;;;;;5376185;26;20868;-41
2024/04/12 02:47:44;;;;;;;244.33;78.33;;;;;;;;;;5368066;26;20512;-41
2024/04/12 02:50:10;;;;;;;242.93;73.77;;;;;;;;;;5367530;26;20455;-41
2024/04/12 02:52:40;;;;;;;245.37;79.10;;;;;;;;;;5374065;26;20746;-41
2024/04/12 02:55:12;;;;;;;247.43;79.63;;;;;;;;;;5364162;26;20730;-41
2024/04/12 02:57:41;;;;;;;247.13;80.10;;;;;;;;;;5360416;26;20521;-42
2024/04/12 03:00:21;;;;;;;242.97;74.57;;;;;;;;;;5380416;26;20514;-41
2024/04/12 03:02:47;;;;;;;247.60;81.10;;;;;;;;;;5386329;26;20530;-41
2024/04/12 03:05:13;;;;;;;246.67;76.10;;;;;;;;;;5364133;26;20789;-42
2024/04/12 03:07:41;;;;;;;245.37;76.47;;;;;;;;;;5370290;26;20575;-41
2024/04/12 03:10:07;;;;;;;247.97;81.13;;;;;;;;;;5377369;26;20456;-41
2024/04/12 03:12:36;;;;;;;247.32;78.88;;;;;;;;;;5367327;26;20466;-42
2024/04/12 03:15:04;;;;;;;243.88;74.60;;;;;;;;;;5363452;26;20564;-41
2024/04/12 03:17:30;;;;;;;242.47;73.53;;;;;;;;;;5381434;26;20225;-41
2024/04/12 03:19:56;;;;;;;243.83;75.67;;;;;;;;;;5367945;26;20802;-41
2024/04/12 03:22:22;;;;;;;247.83;79.50;;;;;;;;;;5371380;26;20499;-41
2024/04/12 03:24:49;;;;;;;244.23;73.67;;;;;;;;;;5373730;26;20438;-41
2024/04/12 03:27:15;;;;;;;243.07;73.30;;;;;;;;;;5370037;26;20500;-41
2024/04/12 03:29:41;;;;;;;245.43;78.50;;;;;;;;;;5360006;26;20476;-41
2024/04/12 03:32:07;;;;;;;244.30;74.90;;;;;;;;;;5370353;26;20515;-41
2024/04/12 03:34:36;;;;;;;242.73;74.83;;;;;;;;;;5371569;26;20509;-41
2024/04/12 03:39:47;;;;;;;241.57;72.67;;;;;;;;;;5373847;26;20285;-41
2024/04/12 03:42:18;;;;;;;244.50;78.00;;;;;;;;;;5371532;26;20460;-41
2024/04/12 03:44:44;;;;;;;246.00;76.90;;;;;;;;;;5374911;26;20451;-42
2024/04/12 03:47:10;;;;;;;245.03;79.47;;;;;;;;;;5367454;26;20220;-41
2024/04/12 03:49:40;;;;;;;242.30;74.72;;;;;;;;;;5364355;26;21073;-41
2024/04/12 03:52:13;;;;;;;246.80;81.07;;;;;;;;;;5367231;26;20601;-41
2024/04/12 03:54:40;;;;;;;242.93;76.50;;;;;;;;;;5370130;26;20551;-41
2024/04/12 03:57:07;;;;;;;247.87;81.80;;;;;;;;;;5365374;26;20994;-41
2024/04/12 03:59:37;;;;;;;242.10;72.17;;;;;;;;;;5388704;26;20574;-41
2024/04/12 04:02:07;;;;;;;246.73;76.90;;;;;;;;;;5374193;26;20512;-41
2024/04/12 04:04:44;;;;;;;242.97;74.87;;;;;;;;;;5373941;26;20451;-41
2024/04/12 04:07:14;;;;;;;245.27;77.87;;;;;;;;;;5366916;26;20507;-41
2024/04/12 04:09:42;;;;;;;241.73;71.93;;;;;;;;;;5370964;26;20527;-41
2024/04/12 04:12:10;;;;;;;246.33;79.83;;;;;;;;;;5368419;26;20451;-41
2024/04/12 04:14:36;;;;;;;245.53;78.63;;;;;;;;;;5369926;26;20457;-41
2024/04/12 04:17:02;;;;;;;243.60;75.63;;;;;;;;;;5377702;26;20551;-41
2024/04/12 04:19:35;;;;;;;247.60;82.57;;;;;;;;;;5362135;26;20581;-41
2024/04/12 04:22:02;;;;;;;245.23;75.43;;;;;;;;;;5362800;26;20444;-41
2024/04/12 04:24:37;;;;;;;242.57;72.50;;;;;;;;;;5367672;26;20525;-42
2024/04/12 04:27:08;;;;;;;244.77;76.93;;;;;;;;;;5371160;26;20451;-41
2024/04/12 04:29:35;;;;;;;245.37;78.10;;;;;;;;;;5373390;26;20470;-41
2024/04/12 04:32:01;;;;;;;244.53;75.47;;;;;;;;;;5369544;26;20799;-41
2024/04/12 04:34:27;;;;;;;244.27;74.50;;;;;;;;;;5369631;26;20504;-41
2024/04/12 04:36:56;;;;;;;247.97;78.77;;;;;;;;;;5359094;26;20455;-41
2024/04/12 04:39:23;;;;;;;241.98;72.93;;;;;;;;;;5360664;26;20505;-41
2024/04/12 04:41:54;;;;;;;245.33;76.57;;;;;;;;;;5367525;26;20237;-41
2024/04/12 04:44:21;;;;;;;242.93;70.93;;;;;;;;;;5375656;26;20471;-41
2024/04/12 04:46:49;;;;;;;241.00;70.33;;;;;;;;;;5388620;26;21056;-41
2024/04/12 04:49:19;;;;;;;242.37;71.77;;;;;;;;;;5351410;26;20513;-41
2024/04/12 04:51:45;;;;;;;241.77;71.20;;;;;;;;;;5373952;26;20847;-41
2024/04/12 04:54:13;;;;;;;242.70;74.13;;;;;;;;;;5373388;26;20453;-41
2024/04/12 04:56:43;;;;;;;247.37;78.77;;;;;;;;;;5369940;26;20558;-41
2024/04/12 04:59:09;;;;;;;237.57;66.37;;;;;;;;;;5379623;26;21174;-41
2024/04/12 05:01:35;;;;;;;243.80;72.45;;;;;;;;;;5378462;26;20571;-41
2024/04/12 05:04:01;;;;;;;243.47;75.00;;;;;;;;;;5368871;26;20221;-41
2024/04/12 05:06:27;;;;;;;241.53;70.77;;;;;;;;;;5371370;26;20445;-41
2024/04/12 05:09:00;;;;;;;242.20;73.43;;;;;;;;;;5362685;26;20518;-41
2024/04/12 05:11:29;;;;;;;247.20;78.80;;;;;;;;;;5367793;26;20531;-41
2024/04/12 05:13:55;;;;;;;247.53;81.20;;;;;;;;;;5375208;26;20999;-41
2024/04/12 05:16:22;;;;;;;242.57;73.20;;;;;;;;;;5373745;26;20445;-41
2024/04/12 05:18:48;;;;;;;243.07;74.73;;;;;;;;;;5366704;26;20460;-41
2024/04/12 05:21:15;;;;;;;244.07;74.47;;;;;;;;;;5345667;26;21056;-41
2024/04/12 05:23:40;;;;;;;240.60;71.20;;;;;;;;;;5371112;26;20513;-41
2024/04/12 05:26:06;;;;;;;243.63;73.60;;;;;;;;;;5367465;26;20228;-41
2024/04/12 05:28:33;;;;;;;245.33;79.80;;;;;;;;;;5349785;26;20572;-41
2024/04/12 05:30:59;;;;;;;241.93;72.63;;;;;;;;;;5365404;26;20468;-41
2024/04/12 05:33:29;;;;;;;243.37;74.20;;;;;;;;;;5374998;26;20619;-41
2024/04/12 05:35:55;;;;;;;245.27;76.77;;;;;;;;;;5373147;26;20624;-41
2024/04/12 05:38:21;;;;;;;245.47;73.40;;;;;;;;;;5366748;26;20472;-41
2024/04/12 05:40:54;;;;;;;240.77;69.67;;;;;;;;;;5366023;26;20464;-41
2024/04/12 05:43:21;;;;;;;247.27;77.83;;;;;;;;;;5379811;26;20451;-42
2024/04/12 05:45:49;;;;;;;244.80;73.47;;;;;;;;;;5378929;26;20983;-42
2024/04/12 05:48:15;;;;;;;240.00;69.53;;;;;;;;;;5377731;26;20460;-41
2024/04/12 05:50:46;;;;;;;243.57;75.20;;;;;;;;;;5353794;26;20513;-42
2024/04/12 05:53:13;;;;;;;241.80;71.87;;;;;;;;;;5378153;26;21002;-42
2024/04/12 05:55:44;;;;;;;247.53;81.57;;;;;;;;;;5375305;26;20543;-41
2024/04/12 05:58:14;;;;;;;245.03;77.23;;;;;;;;;;5373953;26;20879;-41
2024/04/12 06:00:43;;;;;;;250.60;78.30;;;;;;;;;;5369564;26;21002;-42
2024/04/12 06:03:14;;;;;;;244.67;73.37;;;;;;;;;;5370908;26;21019;-41
2024/04/12 06:05:40;;;;;;;249.37;74.87;;;;;;;;;;5367858;26;20464;-42
2024/04/12 06:08:06;;;;;;;244.13;73.33;;;;;;;;;;5364500;26;20464;-41
2024/04/12 06:10:32;;;;;;;240.03;69.90;;;;;;;;;;5373800;26;21434;-42
2024/04/12 06:13:05;;;;;;;242.50;71.50;;;;;;;;;;5369610;26;20471;-41
2024/04/12 06:15:36;;;;;;;241.13;69.93;;;;;;;;;;5369388;26;20512;-41
2024/04/12 06:18:02;;;;;;;246.47;79.27;;;;;;;;;;5364368;26;20459;-41
2024/04/12 06:20:30;;;;;;;243.33;71.83;;;;;;;;;;5370369;26;20575;-41
2024/04/12 06:22:59;;;;;;;245.47;74.87;;;;;;;;;;5374707;26;20452;-41
2024/04/12 06:25:25;;;;;;;244.40;74.73;;;;;;;;;;5369513;26;20456;-42
2024/04/12 06:27:52;;;;;;;249.13;79.10;;;;;;;;;;5368099;26;20546;-41
2024/04/12 06:30:24;;;;;;;245.30;74.03;;;;;;;;;;5368349;26;20463;-42
2024/04/12 06:32:50;;;;;;;242.97;72.67;;;;;;;;;;5368188;26;20542;-41
2024/04/12 06:35:20;;;;;;;249.87;82.23;;;;;;;;;;5363264;26;20451;-41
2024/04/12 06:37:47;;;;;;;242.33;72.43;;;;;;;;;;5365676;26;21095;-41
2024/04/12 06:40:15;;;;;;;242.15;73.40;;;;;;;;;;5373810;26;20444;-42
2024/04/12 06:42:42;;;;;;;241.95;71.13;;;;;;;;;;5373273;26;20229;-42
2024/04/12 06:45:15;;;;;;;250.37;81.07;;;;;;;;;;5364386;26;20256;-42
2024/04/12 06:47:41;;;;;;;245.77;78.30;;;;;;;;;;5368041;26;20521;-41
2024/04/12 06:50:10;;;;;;;245.60;74.97;;;;;;;;;;5364630;26;20531;-41
2024/04/12 06:52:37;;;;;;;248.77;80.40;;;;;;;;;;5367938;26;20968;-42
2024/04/12 06:55:07;;;;;;;242.38;72.50;;;;;;;;;;5367470;26;20449;-42
2024/04/12 06:57:33;;;;;;;240.50;70.40;;;;;;;;;;5368981;26;20698;-41
2024/04/12 07:00:01;;;;;;;243.23;74.43;;;;;;;;;;5367524;26;20514;-42
2024/04/12 07:02:29;;;;;;;242.23;73.77;;;;;;;;;;5377503;26;20447;-40
2024/04/12 07:04:56;;;;;;;245.80;79.13;;;;;;;;;;5377610;26;20578;-42
2024/04/12 07:07:23;;;;;;;241.55;71.88;;;;;;;;;;5368346;26;21125;-42
2024/04/12 07:09:49;;;;;;;243.30;72.87;;;;;;;;;;5377650;26;20277;-42
2024/04/12 07:12:19;;;;;;;242.63;72.05;;;;;;;;;;5367385;26;20508;-41
2024/04/12 07:14:46;;;;;;;239.00;69.60;;;;;;;;;;5367461;26;20229;-41
2024/04/12 07:17:22;;;;;;;245.13;75.70;;;;;;;;;;5361487;26;20444;-41
2024/04/12 07:19:49;;;;;;;241.57;70.40;;;;;;;;;;5365039;26;20576;-41
2024/04/12 07:22:18;;;;;;;246.60;78.40;;;;;;;;;;5377351;26;20464;-41
2024/04/12 07:24:47;;;;;;;243.07;73.57;;;;;;;;;;5377415;26;20512;-42
2024/04/12 07:27:15;;;;;;;244.25;74.65;;;;;;;;;;5363226;26;20229;-41
2024/04/12 07:29:44;;;;;;;245.00;76.45;;;;;;;;;;5366328;26;20740;-41
2024/04/12 07:32:13;;;;;;;246.67;76.17;;;;;;;;;;5363662;26;20234;-42
2024/04/12 07:34:48;;;;;;;243.00;72.20;;;;;;;;;;5366933;26;20447;-41
2024/04/12 07:37:14;;;;;;;246.73;77.40;;;;;;;;;;5366254;26;21002;-41
2024/04/12 07:39:40;;;;;;;242.30;70.93;;;;;;;;;;5366804;26;20457;-42
2024/04/12 07:42:08;;;;;;;245.40;75.00;;;;;;;;;;5366832;26;20519;-41
2024/04/12 07:44:35;;;;;;;246.83;76.70;;;;;;;;;;5371335;26;20448;-41
2024/04/12 07:47:06;;;;;;;247.40;75.20;;;;;;;;;;5369897;26;20444;-41
2024/04/12 07:49:40;;;;;;;248.67;77.97;;;;;;;;;;5369461;26;20983;-41
2024/04/12 07:52:09;;;;;;;248.70;78.90;;;;;;;;;;5363449;26;20549;-41
2024/04/12 07:54:36;;;;;;;249.00;78.00;;;;;;;;;;5366487;26;20448;-41
2024/04/12 07:57:07;;;;;;;244.53;74.23;;;;;;;;;;5362231;26;20453;-41
2024/04/12 07:59:37;;;;;;;251.43;84.97;;;;;;;;;;5360138;26;20509;-41
2024/04/12 08:02:05;;;;;;;253.93;84.30;;;;;;;;;;5359098;26;20465;-41
2024/04/12 08:04:37;;;;;;;251.37;81.33;;;;;;;;;;5361434;26;21059;-41
2024/04/12 08:07:13;;;;;;;249.97;78.50;;;;;;;;;;5358151;26;20924;-41
2024/04/12 08:09:44;;;;;;;249.17;79.43;;;;;;;;;;5385194;26;20571;-41
2024/04/12 08:12:14;;;;;;;254.85;84.63;;;;;;;;;;5368806;26;20458;-41
2024/04/12 08:14:51;;;;;;;249.33;81.13;;;;;;;;;;5375141;26;20337;-41
2024/04/12 08:17:17;;;;;;;246.87;78.90;;;;;;;;;;5369606;26;20455;-42
2024/04/12 08:19:46;;;;;;;251.93;81.87;;;;;;;;;;5366309;26;21258;-41
2024/04/12 08:22:18;;;;;;;251.07;81.07;;;;;;;;;;5379712;26;20572;-42
2024/04/12 08:24:51;;;;;;;250.20;77.77;;;;;;;;;;5379137;26;20495;-42
2024/04/12 08:27:24;;;;;;;248.93;78.33;;;;;;;;;;5378196;26;20448;-42
2024/04/12 08:29:51;;;;;;;249.50;81.20;;;;;;;;;;5378564;26;20466;-41
2024/04/12 08:32:27;;;;;;;253.47;87.87;;;;;;;;;;5369706;26;20508;-42
2024/04/12 08:34:55;;;;;;;248.30;81.57;;;;;;;;;;5380190;26;20455;-42
2024/04/12 08:37:30;;;;;;;250.63;85.93;;;;;;;;;;5374615;26;20456;-41
2024/04/12 08:39:56;;;;;;;250.67;82.37;;;;;;;;;;5374183;26;20455;-41
2024/04/12 08:42:28;;;;;;;251.43;86.43;;;;;;;;;;5373382;26;20844;-41
2024/04/12 08:44:58;;;;;;;245.63;77.80;;;;;;;;;;5372361;26;20511;-41
2024/04/12 08:49:53;;;;;;;250.00;81.00;;;;;;;;;;5359861;26;20504;-42
2024/04/12 08:52:30;;;;;;;249.97;79.93;;;;;;;;;;5366904;26;20459;-41
2024/04/12 08:54:59;;;;;;;252.03;84.63;;;;;;;;;;5369118;26;20507;-42
2024/04/12 08:57:25;;;;;;;248.27;81.77;;;;;;;;;;5374151;26;20846;-41
2024/04/12 08:59:51;;;;;;;245.57;77.27;;;;;;;;;;5367732;26;20467;-41
2024/04/12 09:02:20;;;;;;;250.33;81.87;;;;;;;;;;5379176;26;20617;-41
2024/04/12 09:04:47;;;;;;;256.67;92.43;;;;;;;;;;5380137;26;20873;-42
2024/04/12 09:07:14;;;;;;;249.37;85.03;;;;;;;;;;5379180;26;21101;-41
2024/04/12 09:09:41;;;;;;;249.43;80.57;;;;;;;;;;5378693;26;20502;-41
2024/04/12 09:12:12;;;;;;;252.37;84.27;;;;;;;;;;5374790;26;20535;-41
2024/04/12 09:14:41;;;;;;;249.17;79.47;;;;;;;;;;5356014;26;20440;-41
2024/04/12 09:17:14;;;;;;;251.17;83.57;;;;;;;;;;5374339;26;20842;-41
2024/04/12 09:19:45;;;;;;;253.83;85.53;;;;;;;;;;5377910;26;20579;-41
2024/04/12 09:22:17;;;;;;;251.93;86.17;;;;;;;;;;5362123;26;20521;-41
2024/04/12 09:24:44;;;;;;;251.00;84.17;;;;;;;;;;5373740;26;20842;-41
2024/04/12 09:27:12;;;;;;;252.10;84.47;;;;;;;;;;5371940;26;20509;-41
2024/04/12 09:29:44;;;;;;;248.03;81.27;;;;;;;;;;5371651;26;20567;-41
2024/04/12 09:34:58;;;;;;;247.90;81.17;;;;;;;;;;5369522;26;20504;-41
2024/04/12 09:42:44;;;;;;;249.00;84.57;;;;;;;;;;5365441;26;20521;-41
2024/04/12 09:45:16;;;;;;;258.13;90.43;;;;;;;;;;5361045;26;20516;-41
2024/04/12 10:37:30;;;;;;;246.23;81.77;;;;;;;;;;5368619;26;20569;-41
2024/04/12 10:39:59;;;;;;;253.13;90.27;;;;;;;;;;5359591;26;20451;-42
2024/04/12 10:42:31;;;;;;;256.57;95.53;;;;;;;;;;5375769;26;20805;-42
2024/04/12 10:44:59;;;;;;;248.73;85.13;;;;;;;;;;5377028;26;21232;-42
2024/04/12 10:47:25;;;;;;;252.23;88.97;;;;;;;;;;5377385;26;20473;-41
2024/04/12 10:49:52;;;;;;;253.93;91.63;;;;;;;;;;5376588;26;20965;-41
2024/04/12 10:52:30;;;;;;;252.00;91.80;;;;;;;;;;5377669;26;20525;-41
2024/04/12 10:54:59;;;;;;;252.70;87.13;;;;;;;;;;5371069;26;20526;-42
2024/04/12 10:57:27;;;;;;;254.83;89.97;;;;;;;;;;5370273;26;20575;-41
2024/04/12 10:59:53;;;;;;;251.93;88.97;;;;;;;;;;5370385;26;20590;-42
2024/04/12 11:02:21;;;;;;;256.43;92.97;;;;;;;;;;5367621;26;20533;-42
2024/04/12 11:05:05;;;;;;;253.47;90.67;;;;;;;;;;5367427;26;20451;-41
2024/04/12 11:07:32;;;;;;;252.37;90.93;;;;;;;;;;5377402;26;20574;-41
2024/04/12 11:09:58;;;;;;;254.83;93.50;;;;;;;;;;5372565;26;20455;-41
2024/04/12 11:12:40;;;;;;;254.67;92.63;;;;;;;;;;5365241;26;20521;-42
2024/04/12 11:31:07;;;;;;;258.77;94.63;;;;;;;;;;5377352;26;20466;-41
2024/04/12 11:31:57;;;;;;;259.80;103.03;;;;;;;;;;5372493;26;20579;-41
2024/04/12 11:34:29;;;;;;;260.87;102.00;;;;;;;;;;5373092;26;21125;-42
2024/04/12 11:36:55;;;;;;;258.57;99.13;;;;;;;;;;5373311;26;20460;-42
2024/04/12 11:39:27;;;;;;;257.97;99.10;;;;;;;;;;5374588;26;20455;-42
2024/04/12 11:41:56;;;;;;;257.57;97.73;;;;;;;;;;5376959;26;20860;-42
2024/04/12 11:44:22;;;;;;;258.43;102.10;;;;;;;;;;5374061;26;20550;-42
2024/04/12 11:46:49;;;;;;;259.63;102.13;;;;;;;;;;5369410;26;20448;-41
2024/04/12 11:49:25;;;;;;;260.77;104.80;;;;;;;;;;5366306;26;20999;-41
2024/04/12 11:51:55;;;;;;;260.03;103.23;;;;;;;;;;5364932;26;21361;-41
2024/04/12 11:54:22;;;;;;;262.77;109.53;;;;;;;;;;5357720;26;20520;-41
2024/04/12 11:56:49;;;;;;;254.80;94.00;;;;;;;;;;5359383;26;20785;-41
2024/04/12 11:59:18;;;;;;;258.67;102.00;;;;;;;;;;5379701;26;20560;-41
2024/04/12 12:01:44;;;;;;;260.70;106.33;;;;;;;;;;5370433;26;20459;-41
2024/04/12 12:04:10;;;;;;;262.47;108.13;;;;;;;;;;5380031;26;20807;-42
2024/04/12 12:06:37;;;;;;;267.40;109.53;;;;;;;;;;5378706;26;20503;-42
2024/04/12 12:09:11;;;;;;;260.10;105.77;;;;;;;;;;5379201;26;21084;-43
2024/04/12 12:11:43;;;;;;;254.20;98.37;;;;;;;;;;5376861;26;20458;-41
2024/04/12 12:14:09;;;;;;;264.67;111.60;;;;;;;;;;5376432;26;20511;-42
2024/04/12 12:16:36;;;;;;;259.10;106.13;;;;;;;;;;5377167;26;20600;-41
2024/04/12 12:19:06;;;;;;;259.87;104.23;;;;;;;;;;5374763;26;20536;-41
2024/04/12 12:21:32;;;;;;;263.60;112.17;;;;;;;;;;5380230;26;20464;-42
2024/04/12 12:23:59;;;;;;;261.13;110.30;;;;;;;;;;5380565;26;20864;-41
2024/04/12 12:26:25;;;;;;;259.67;105.40;;;;;;;;;;5378784;26;20448;-42
2024/04/12 12:28:51;;;;;;;262.03;107.33;;;;;;;;;;5371370;26;20453;-42
2024/04/12 12:31:18;;;;;;;260.47;107.07;;;;;;;;;;5370488;26;20547;-41
2024/04/12 12:33:45;;;;;;;263.17;116.37;;;;;;;;;;5372341;26;20815;-42
2024/04/12 12:36:11;;;;;;;263.53;116.47;;;;;;;;;;5376686;26;21052;-41
2024/04/12 12:38:40;;;;;;;260.63;110.50;;;;;;;;;;5370379;26;20894;-41
2024/04/12 12:41:07;;;;;;;264.53;118.70;;;;;;;;;;5367494;26;20455;-41
2024/04/12 12:43:33;;;;;;;262.63;113.83;;;;;;;;;;5379382;26;20498;-42
2024/04/12 12:46:00;;;;;;;265.17;117.53;;;;;;;;;;5379648;26;20527;-43
2024/04/12 12:48:28;;;;;;;261.70;112.47;;;;;;;;;;5378109;26;20511;-42
2024/04/12 12:50:55;;;;;;;261.63;108.27;;;;;;;;;;5379261;26;20512;-41
2024/04/12 12:53:22;;;;;;;261.70;109.10;;;;;;;;;;5380293;26;20451;-41
2024/04/12 12:55:51;;;;;;;261.37;105.57;;;;;;;;;;5376652;26;20561;-41
2024/04/12 12:58:21;;;;;;;260.27;104.77;;;;;;;;;;5375669;26;21047;-40
2024/04/12 13:00:47;;;;;;;257.97;100.73;;;;;;;;;;5374616;26;20459;-41
2024/04/12 13:03:17;;;;;;;262.43;105.20;;;;;;;;;;5373259;26;20465;-41
2024/04/12 13:05:48;;;;;;;255.37;94.97;;;;;;;;;;5374948;26;20463;-42
2024/04/12 13:08:15;;;;;;;259.67;105.73;;;;;;;;;;5370546;26;20450;-41
2024/04/12 13:10:49;;;;;;;261.77;103.50;;;;;;;;;;5378773;26;21012;-41
2024/04/12 13:13:21;;;;;;;254.60;92.97;;;;;;;;;;5370486;26;20454;-41
2024/04/12 13:15:54;;;;;;;257.07;98.33;;;;;;;;;;5369498;26;20518;-41
2024/04/12 13:18:20;;;;;;;254.60;92.00;;;;;;;;;;5368357;26;20447;-41
2024/04/12 13:20:45;;;;;;;259.47;102.40;;;;;;;;;;5375960;26;20547;-41
2024/04/12 13:23:14;;;;;;;258.63;99.87;;;;;;;;;;5374566;26;20452;-42
2024/04/12 13:25:41;;;;;;;256.23;97.77;;;;;;;;;;5376825;26;20998;-41
2024/04/12 13:28:11;;;;;;;260.03;106.37;;;;;;;;;;5370405;26;20519;-42
2024/04/12 13:30:40;;;;;;;262.63;107.73;;;;;;;;;;5376428;26;20516;-41
2024/04/12 13:33:08;;;;;;;259.00;102.73;;;;;;;;;;5377363;26;20883;-42
2024/04/12 13:35:34;;;;;;;265.73;110.70;;;;;;;;;;5376497;26;20443;-41
2024/04/12 13:38:00;;;;;;;255.93;97.47;;;;;;;;;;5375536;26;20461;-41
2024/04/12 13:40:26;;;;;;;257.23;101.63;;;;;;;;;;5368209;26;20461;-41
2024/04/12 13:42:54;;;;;;;256.47;98.83;;;;;;;;;;5372580;26;20455;-41
2024/04/12 13:50:55;;;;;;;259.33;103.17;;;;;;;;;;5360738;26;20505;-42
2024/04/12 13:53:32;;;;;;;257.53;103.00;;;;;;;;;;5363527;26;20557;-42
2024/04/12 13:58:55;;;;;;;252.37;94.10;;;;;;;;;;5372420;26;20533;-41
2024/04/12 14:01:22;;;;;;;258.10;100.53;;;;;;;;;;5365167;26;20573;-41
2024/04/12 14:03:49;;;;;;;255.63;101.07;;;;;;;;;;5378624;26;20796;-41
2024/04/12 14:06:18;;;;;;;255.63;96.17;;;;;;;;;;5366979;26;20508;-41
2024/04/12 14:08:44;;;;;;;255.80;100.37;;;;;;;;;;5372481;26;20512;-42
2024/04/12 14:11:10;;;;;;;254.53;98.93;;;;;;;;;;5379107;26;20460;-42
2024/04/12 14:13:36;;;;;;;255.27;100.03;;;;;;;;;;5377790;26;20511;-41
2024/04/12 14:16:02;;;;;;;255.13;99.57;;;;;;;;;;5370594;26;20768;-41
2024/04/12 14:18:29;;;;;;;256.93;103.17;;;;;;;;;;5378620;26;21054;-41
2024/04/12 14:20:57;;;;;;;257.43;103.20;;;;;;;;;;5376590;26;20455;-43
2024/04/12 14:23:24;;;;;;;253.40;93.33;;;;;;;;;;5375413;26;20607;-41
2024/04/12 14:25:50;;;;;;;251.13;90.20;;;;;;;;;;5373679;26;20520;-42
2024/04/12 14:28:16;;;;;;;256.70;99.20;;;;;;;;;;5373698;26;20453;-42
2024/04/12 14:30:42;;;;;;;258.07;100.70;;;;;;;;;;5375839;26;21062;-41
2024/04/12 14:33:08;;;;;;;254.23;94.77;;;;;;;;;;5376332;26;20457;-41
2024/04/12 14:35:41;;;;;;;258.37;102.20;;;;;;;;;;5372092;26;20550;-41
2024/04/12 14:38:07;;;;;;;254.93;94.40;;;;;;;;;;5372502;26;20468;-42
2024/04/12 14:40:34;;;;;;;250.37;92.17;;;;;;;;;;5370179;26;20452;-41
2024/04/12 14:43:05;;;;;;;260.00;102.50;;;;;;;;;;5358466;26;20469;-41
2024/04/12 14:45:33;;;;;;;254.60;101.43;;;;;;;;;;5373274;26;21271;-42
2024/04/12 14:47:59;;;;;;;257.10;101.63;;;;;;;;;;5373808;26;20533;-42
2024/04/12 14:50:25;;;;;;;258.07;105.80;;;;;;;;;;5366972;26;20448;-41
2024/04/12 14:52:51;;;;;;;256.87;100.47;;;;;;;;;;5365902;26;20558;-42
2024/04/12 14:55:18;;;;;;;262.80;110.27;;;;;;;;;;5377880;26;20783;-41
2024/04/12 14:57:50;;;;;;;256.70;104.33;;;;;;;;;;5378335;26;20511;-42
2024/04/12 15:00:15;;;;;;;257.23;106.23;;;;;;;;;;5377356;26;20509;-41
2024/04/12 15:49:07;;;;;;;257.73;104.67;;;;;;;;;;5377670;26;20498;-41
2024/04/12 15:51:33;;;;;;;263.63;112.67;;;;;;;;;;5370837;26;20538;-42
2024/04/12 15:54:00;;;;;;;257.97;106.60;;;;;;;;;;5377130;26;20456;-40
2024/04/12 16:12:38;;;;;;;256.07;101.43;;;;;;;;;;5371423;26;20569;-41
2024/04/12 16:15:04;;;;;;;261.63;105.90;;;;;;;;;;5369649;26;20591;-40
2024/04/12 16:17:31;;;;;;;256.77;101.63;;;;;;;;;;5369200;26;20519;-41
2024/04/12 16:19:57;;;;;;;254.20;98.37;;;;;;;;;;5367996;26;21044;-43
2024/04/12 16:22:23;;;;;;;251.87;93.30;;;;;;;;;;5379515;26;20463;-42
2024/04/12 16:24:49;;;;;;;261.00;105.43;;;;;;;;;;5380500;26;20515;-42
2024/04/12 16:27:15;;;;;;;256.20;102.50;;;;;;;;;;5380352;26;20793;-41
2024/04/12 16:29:42;;;;;;;256.57;100.10;;;;;;;;;;5379921;26;20519;-41
2024/04/12 16:32:08;;;;;;;256.17;99.97;;;;;;;;;;5378591;26;20512;-41
2024/04/12 16:34:34;;;;;;;264.23;109.83;;;;;;;;;;5377652;26;20456;-41
2024/04/12 16:37:00;;;;;;;258.27;100.40;;;;;;;;;;5376050;26;21223;-41